Portada
METAR-TAF:

METAR-TAF

Aeropuertos :

Aeropuerto Internacional de Nuakchot

Nuakchot, Mauritania

latitud: 18-18-36N, longitud: 015-58-11W, altitud: 3 m

Observación

El informe se hizo hace 37 minutos, a las 01:00 UTC
Viento 4 kt del oeste
Temperatura 23°C
Humedad 83%
Presión 1011 hPa
Visibilidad: 8000 m

METAR: GQNO 220100Z 28004KT 8000 NSC 23/20 Q1011 NOSIG

Hora: 01:37 (01:37 UTC)

Pronóstico

El informe se hizo hace 2 horas y 37 minutos, a las 23:00 UTC
Pronóstico válido del 22 a las 00 UTC al 23 a las 06 UTC
Viento 10 kt del norte-noroeste
Visibilidad: 7000 m
Evolucionando progresivamente
del 22 a las 08 UTC al 22 a las 10 UTC
Viento 10 kt del noreste
Evolucionando progresivamente
del 22 a las 14 UTC al 22 a las 17 UTC
Viento 14 kt del norte-noroeste

TAF: GQNO 212300Z 2200/2306 33010KT 7000 NSC BECMG 2208/2210 04010KT BECMG 2214/2217 34014KT

Observaciones y pronósticos meteorológicos de más de 4000 aeropuertos (mensajes METAR y TAF).

Los puntos amarillos y rojos representan las estaciones disponibles.

Ponga el ratón en el punto deseado para ver el nombre de la estación.

Haga clic para ver las observaciones y los pronósticos meteorológicos.

Para cambiar el mapa : haga clic en los botones verdes con una cruz de color negro para hacer un zoom, en el botón verde con un guión para alejar o en las flechas verdes para mapas adyacentes.


METAR-TAF: